Terminal Aerodrome Forecast
Issued by NWS

Home | Current Version | Previous Version | Text Only | Print | Product List | Glossary On
Versions: 1 2 3 4 5 6 7 8 9 10 11 12 13 14 15 16 17 18 19 20 21 22 23 24 25
000
FTUS43 KAPX 290520
TAFTVC
TAF
KTVC 290520Z 2906/3006 00000KT P6SM FEW080
     FM291500 06005KT P6SM FEW035 SCT200
     FM292100 03007KT P6SM SCT180
     FM300200 08005KT P6SM BKN150=

USA.gov is the U.S. government's official web portal to all federal, state and local government web resources and services.